You are listening to:
KJFK Tower 123.9 - New York, New York, United States

KJFK 010551Z 28016G25KT 10SM FEW060 04/M06 A2993 RMK AO2 PK WND 28029/0507 SLP133 T00441056 10122 20044 53032

If stream doesn't start automatically press the play button
If stream stops then reload player then press play